Time;durP1;ratioP1;P1;durP2;ratioP2;P2;SDS_P1;SDS_P2;PMS_P1;PMS_P2;Temp;Humidity;BMP_temperature;BMP_pressure;BME280_temperature;BME280_humidity;BME280_pressure;Samples;Min_cycle;Max_cycle;Signal;HPM_P1;HPM_P2
2022/06/20 00:02:23;;;;;;;2.97;0.60;;;19.20;85.50;;;;;;5067227;28;20485;-79
2022/06/20 00:04:51;;;;;;;1.85;0.70;;;19.10;86.40;;;;;;5068467;28;20538;-80
2022/06/20 00:07:18;;;;;;;3.42;0.57;;;19.10;87.40;;;;;;5067715;28;20036;-80
2022/06/20 00:09:43;;;;;;;7.55;0.70;;;19.00;88.20;;;;;;5067254;28;20020;-79
2022/06/20 00:12:17;;;;;;;3.15;0.47;;;18.90;88.70;;;;;;5067697;28;20032;-78
2022/06/20 00:14:43;;;;;;;5.97;1.10;;;18.90;89.70;;;;;;5066725;28;20055;-78
2022/06/20 00:17:14;;;;;;;2.88;0.63;;;18.90;90.30;;;;;;5067975;28;20071;-78
2022/06/20 00:19:42;;;;;;;2.05;0.65;;;18.80;90.70;;;;;;5068684;28;20025;-77
2022/06/20 00:22:09;;;;;;;4.20;0.60;;;18.80;91.10;;;;;;5068214;28;20039;-77
2022/06/20 00:24:34;;;;;;;5.95;0.73;;;18.80;91.50;;;;;;5067544;28;20025;-78
2022/06/20 00:27:00;;;;;;;3.75;1.05;;;18.80;92.00;;;;;;5068348;28;20547;-78
2022/06/20 00:29:28;;;;;;;4.50;0.80;;;18.70;92.40;;;;;;5068209;28;20515;-78
2022/06/20 00:31:54;;;;;;;7.18;0.90;;;18.70;92.90;;;;;;5068752;28;20032;-78
2022/06/20 00:34:19;;;;;;;2.95;0.75;;;18.70;93.10;;;;;;5068248;28;20378;-78
2022/06/20 00:36:45;;;;;;;2.33;0.88;;;18.70;93.40;;;;;;5049894;28;20035;-77
2022/06/20 00:39:11;;;;;;;6.53;0.73;;;18.70;93.40;;;;;;5067951;28;20656;-79
2022/06/20 00:41:37;;;;;;;2.83;1.40;;;18.70;93.70;;;;;;5066885;28;20071;-78
2022/06/20 00:44:03;;;;;;;2.80;1.25;;;18.60;93.60;;;;;;5068413;28;20026;-79
2022/06/20 00:46:35;;;;;;;5.45;1.00;;;18.60;94.00;;;;;;5067653;28;20037;-79
2022/06/20 00:49:26;;;;;;;5.55;0.90;;;18.60;94.20;;;;;;5068045;28;20025;-80
2022/06/20 00:52:06;;;;;;;2.92;1.00;;;18.50;94.10;;;;;;5067768;28;20086;-80
2022/06/20 00:54:42;;;;;;;4.18;1.70;;;18.50;93.90;;;;;;5066187;28;20570;-80
2022/06/20 00:57:19;;;;;;;6.05;2.13;;;18.50;93.90;;;;;;5066316;28;20060;-79
2022/06/20 00:59:49;;;;;;;5.30;1.05;;;18.50;94.50;;;;;;5066512;28;20059;-80
2022/06/20 01:02:33;;;;;;;2.03;1.00;;;18.50;94.50;;;;;;5066106;28;20029;-79
2022/06/20 01:05:02;;;;;;;3.20;1.25;;;18.50;94.90;;;;;;5049189;28;20504;-79
2022/06/20 01:07:48;;;;;;;3.30;1.17;;;18.40;95.10;;;;;;5067596;28;20118;-79
2022/06/20 01:10:16;;;;;;;3.17;1.00;;;18.40;95.30;;;;;;5067513;28;20032;-80
2022/06/20 01:12:57;;;;;;;3.15;1.00;;;18.40;95.50;;;;;;5049721;28;20032;-80
2022/06/20 01:15:26;;;;;;;5.28;1.25;;;18.40;95.80;;;;;;5067785;28;20040;-81
2022/06/20 01:17:53;;;;;;;6.68;0.95;;;18.40;95.70;;;;;;5065746;28;20143;-80
2022/06/20 01:20:18;;;;;;;2.22;1.20;;;18.40;95.80;;;;;;5067099;28;20029;-79
2022/06/20 01:22:50;;;;;;;4.05;1.30;;;18.30;96.00;;;;;;5065165;28;20082;-79
2022/06/20 01:25:27;;;;;;;6.60;1.55;;;18.30;96.30;;;;;;5069235;28;20532;-79
2022/06/20 01:27:53;;;;;;;5.85;1.10;;;18.20;96.80;;;;;;5065332;28;20876;-78
2022/06/20 01:30:23;;;;;;;2.17;1.20;;;18.20;96.80;;;;;;5066651;28;20135;-78
2022/06/20 01:32:49;;;;;;;7.70;1.60;;;18.20;97.10;;;;;;5065505;28;20028;-78
2022/06/20 01:38:02;;;;;;;3.25;1.38;;;18.10;97.00;;;;;;5066488;28;20059;-78
2022/06/20 01:40:29;;;;;;;6.25;1.38;;;18.10;97.20;;;;;;5066690;28;20029;-80
2022/06/20 01:42:55;;;;;;;2.25;1.17;;;18.00;97.40;;;;;;5065515;28;20028;-79
2022/06/20 01:48:11;;;;;;;4.95;1.60;;;18.00;97.20;;;;;;5067012;28;20091;-81
2022/06/20 01:50:40;;;;;;;5.43;1.23;;;18.00;97.30;;;;;;5064792;28;20028;-81
2022/06/20 01:53:08;;;;;;;6.95;1.67;;;18.00;97.20;;;;;;5065478;28;20028;-81
2022/06/20 01:55:35;;;;;;;5.35;1.83;;;18.00;97.00;;;;;;5066692;28;20031;-81
2022/06/20 01:58:12;;;;;;;5.03;2.10;;;18.00;97.10;;;;;;5065784;28;20031;-79
2022/06/20 02:00:38;;;;;;;;;;;18.00;97.00;;;;;;5066861;28;20051;-81
2022/06/20 02:03:13;;;;;;;4.55;1.63;;;17.90;96.90;;;;;;5048593;28;19948;-81
2022/06/20 02:05:42;;;;;;;8.10;1.23;;;17.90;96.70;;;;;;5066265;28;20079;-80
2022/06/20 02:08:08;;;;;;;5.28;1.50;;;17.90;96.70;;;;;;5065310;28;20044;-80
2022/06/20 02:10:46;;;;;;;6.00;1.63;;;17.90;96.80;;;;;;5064842;28;20031;-80
2022/06/20 02:13:14;;;;;;;2.80;1.15;;;17.90;97.00;;;;;;5065636;28;20408;-80
2022/06/20 02:15:41;;;;;;;2.55;1.08;;;17.90;97.10;;;;;;5048326;28;20051;-80
2022/06/20 02:18:08;;;;;;;3.28;1.27;;;17.80;97.00;;;;;;5065314;28;20021;-80
2022/06/20 02:20:45;;;;;;;3.75;1.88;;;17.90;97.20;;;;;;5065052;28;20036;-80
2022/06/20 02:23:23;;;;;;;4.03;1.20;;;17.80;97.20;;;;;;5048043;28;20039;-80
2022/06/20 02:25:52;;;;;;;3.53;0.90;;;17.80;97.10;;;;;;5065102;28;20040;-80
2022/06/20 02:28:26;;;;;;;2.58;1.25;;;17.80;97.20;;;;;;5065345;28;20113;-80
2022/06/20 02:30:52;;;;;;;5.18;1.30;;;17.80;97.00;;;;;;5065563;28;20080;-80
2022/06/20 02:33:23;;;;;;;3.88;0.93;;;17.80;97.30;;;;;;5066053;28;20087;-79
2022/06/20 02:35:49;;;;;;;2.28;0.80;;;17.80;97.00;;;;;;5047987;28;20029;-79
2022/06/20 02:38:16;;;;;;;2.90;1.80;;;17.70;97.10;;;;;;5066386;28;20056;-80
2022/06/20 02:40:42;;;;;;;5.90;1.55;;;17.80;96.70;;;;;;5067487;28;20309;-79
2022/06/20 02:43:26;;;;;;;2.38;1.23;;;17.80;96.80;;;;;;5069048;28;20389;-78
2022/06/20 02:45:53;;;;;;;6.55;1.50;;;17.80;97.10;;;;;;5070303;28;20031;-78
2022/06/20 02:48:21;;;;;;;2.97;1.23;;;17.80;97.20;;;;;;5070437;28;20032;-79
2022/06/20 02:50:53;;;;;;;5.30;1.30;;;17.80;97.20;;;;;;5051577;28;20029;-79
2022/06/20 02:53:41;;;;;;;3.90;1.73;;;17.80;97.40;;;;;;5069945;28;20036;-79
2022/06/20 02:56:12;;;;;;;6.60;1.75;;;17.80;97.30;;;;;;5069651;28;20044;-80
2022/06/20 02:58:42;;;;;;;7.57;1.50;;;17.80;97.30;;;;;;5069146;28;20029;-80
2022/06/20 03:01:16;;;;;;;4.90;2.42;;;17.90;97.40;;;;;;5068809;28;20162;-80
2022/06/20 03:03:46;;;;;;;2.97;1.50;;;17.80;97.20;;;;;;5068463;28;20135;-81
2022/06/20 03:06:42;;;;;;;10.85;2.22;;;17.90;97.40;;;;;;5070112;28;20036;-81
2022/06/20 03:09:11;;;;;;;2.83;1.67;;;17.90;97.50;;;;;;5066416;28;20486;-80
2022/06/20 03:11:37;;;;;;;5.53;1.88;;;17.90;97.60;;;;;;5068895;28;20696;-80
2022/06/20 03:14:08;;;;;;;8.68;2.28;;;17.90;97.80;;;;;;5068921;28;20040;-82
2022/06/20 03:16:34;;;;;;;8.45;2.72;;;17.90;98.00;;;;;;5069937;28;20078;-81
2022/06/20 03:19:01;;;;;;;9.93;3.17;;;17.90;98.10;;;;;;5069864;28;20028;-81
2022/06/20 03:21:33;;;;;;;8.70;3.30;;;17.90;98.40;;;;;;5069313;28;20036;-80
2022/06/20 03:24:00;;;;;;;4.13;2.40;;;17.90;98.50;;;;;;5069701;28;20052;-81
2022/06/20 03:26:26;;;;;;;9.35;2.95;;;17.90;98.50;;;;;;5068480;28;20706;-80
2022/06/20 03:28:53;;;;;;;9.82;3.60;;;18.00;98.60;;;;;;5068170;28;20456;-80
2022/06/20 03:31:19;;;;;;;5.25;2.75;;;18.10;98.40;;;;;;5051414;28;20071;-79
2022/06/20 03:33:46;;;;;;;8.90;3.72;;;18.10;98.50;;;;;;5051034;28;20064;-79
2022/06/20 03:36:13;;;;;;;7.90;3.38;;;18.20;98.60;;;;;;5068895;28;20664;-79
2022/06/20 03:38:40;;;;;;;4.60;2.72;;;18.20;98.50;;;;;;5068890;28;20052;-80
2022/06/20 03:41:08;;;;;;;6.47;3.50;;;18.30;98.50;;;;;;5069409;28;20021;-79
2022/06/20 03:43:35;;;;;;;5.57;3.28;;;18.40;98.50;;;;;;5068577;28;20040;-80
2022/06/20 03:46:11;;;;;;;7.80;2.85;;;18.40;98.30;;;;;;5067476;28;20086;-79
2022/06/20 03:48:48;;;;;;;14.55;3.92;;;18.60;98.10;;;;;;5069169;28;20497;-80
2022/06/20 03:51:19;;;;;;;5.63;2.80;;;18.60;98.20;;;;;;5050652;28;20524;-80
2022/06/20 03:54:06;;;;;;;4.68;2.50;;;18.80;97.90;;;;;;5068632;28;20032;-80
2022/06/20 03:56:43;;;;;;;6.22;2.70;;;18.90;97.60;;;;;;5067601;28;20037;-80
2022/06/20 03:59:12;;;;;;;5.22;2.78;;;19.10;97.50;;;;;;5067264;28;20029;-80
2022/06/20 04:02:03;;;;;;;7.38;2.97;;;19.30;97.10;;;;;;5068088;28;20140;-80
2022/06/20 04:05:03;;;;;;;9.43;3.28;;;19.60;96.80;;;;;;5068712;28;20032;-80
2022/06/20 04:07:53;;;;;;;10.25;3.35;;;20.00;96.00;;;;;;5067301;28;20025;-81
2022/06/20 04:13:23;;;;;;;8.65;2.83;;;20.70;94.50;;;;;;5068598;28;20097;-81
2022/06/20 04:16:09;;;;;;;11.85;3.30;;;21.10;93.30;;;;;;5067095;28;20044;-81
2022/06/20 04:18:39;;;;;;;4.03;2.67;;;21.40;92.30;;;;;;5067946;28;20028;-81
2022/06/20 04:21:21;;;;;;;5.68;3.25;;;21.50;91.80;;;;;;5067053;28;20089;-80
2022/06/20 04:24:12;;;;;;;9.43;2.65;;;21.60;92.10;;;;;;5049960;28;20120;-80
2022/06/20 04:26:44;;;;;;;6.95;2.85;;;21.70;91.60;;;;;;5050427;28;20884;-81
2022/06/20 04:29:15;;;;;;;5.55;2.83;;;21.80;91.10;;;;;;5067956;28;20025;-80
2022/06/20 04:31:58;;;;;;;7.38;2.70;;;21.90;90.90;;;;;;5068002;28;20052;-81
2022/06/20 04:35:08;;;;;;;4.32;1.83;;;22.10;89.70;;;;;;5049757;28;20174;-80
2022/06/20 04:37:43;;;;;;;6.43;2.53;;;22.40;88.50;;;;;;5046010;28;20039;-80
2022/06/20 04:40:26;;;;;;;4.55;2.60;;;22.60;87.20;;;;;;5068002;28;20031;-79
2022/06/20 04:43:01;;;;;;;6.18;2.22;;;22.70;87.20;;;;;;5049633;28;20020;-79
2022/06/20 04:45:45;;;;;;;4.18;2.00;;;22.80;87.00;;;;;;5066009;28;20033;-79
2022/06/20 04:48:21;;;;;;;5.88;2.20;;;22.80;86.20;;;;;;5067449;28;20484;-80
2022/06/20 04:50:51;;;;;;;;;;;22.90;85.60;;;;;;5049787;28;20025;-78
2022/06/20 04:53:50;;;;;;;7.53;2.55;;;23.00;86.00;;;;;;5066686;28;21140;-80
2022/06/20 04:56:26;;;;;;;4.68;2.25;;;23.20;85.20;;;;;;5012588;28;20045;-80
2022/06/20 04:59:06;;;;;;;6.55;2.05;;;23.30;85.40;;;;;;5067633;28;20253;-79
2022/06/20 05:01:33;;;;;;;8.50;2.58;;;23.50;85.20;;;;;;5049552;28;20025;-79
2022/06/20 05:04:14;;;;;;;3.60;1.77;;;23.70;84.90;;;;;;5066442;28;20033;-79
2022/06/20 05:06:41;;;;;;;4.95;2.25;;;23.80;84.90;;;;;;5067633;28;20035;-79
2022/06/20 05:09:15;;;;;;;3.92;2.35;;;24.00;84.50;;;;;;5067513;28;20532;-80
2022/06/20 05:12:07;;;;;;;6.57;2.38;;;24.10;83.20;;;;;;5049749;28;20024;-79
2022/06/20 05:14:54;;;;;;;7.15;2.40;;;24.40;82.40;;;;;;5067681;28;20029;-79
2022/06/20 05:17:24;;;;;;;3.88;1.95;;;24.60;83.20;;;;;;5067664;28;20031;-79
2022/06/20 05:19:54;;;;;;;4.22;1.45;;;24.80;81.30;;;;;;5066945;28;20029;-79
2022/06/20 05:22:26;;;;;;;5.28;1.70;;;25.00;79.20;;;;;;5049025;28;20407;-80
2022/06/20 05:24:54;;;;;;;4.07;1.67;;;25.20;77.70;;;;;;5066997;28;20497;-78
2022/06/20 05:27:25;;;;;;;8.32;1.38;;;25.30;75.00;;;;;;5065723;28;20516;-79
2022/06/20 05:29:54;;;;;;;8.95;1.48;;;25.50;71.90;;;;;;5065694;28;20110;-80
2022/06/20 05:32:34;;;;;;;4.22;1.00;;;25.60;70.00;;;;;;5048876;28;20024;-79
2022/06/20 05:35:20;;;;;;;2.70;1.25;;;25.70;67.70;;;;;;5065483;28;20032;-79
2022/06/20 05:37:57;;;;;;;4.50;1.42;;;25.80;65.80;;;;;;5066623;28;20063;-79
2022/06/20 05:40:47;;;;;;;3.10;1.20;;;25.90;64.70;;;;;;5066854;28;20108;-79
2022/06/20 05:43:20;;;;;;;3.03;1.42;;;26.10;62.90;;;;;;5048702;28;20120;-79
2022/06/20 05:45:52;;;;;;;1.92;1.00;;;26.40;61.80;;;;;;5065274;28;20042;-80
2022/06/20 05:48:23;;;;;;;4.65;1.67;;;27.50;59.80;;;;;;5065303;28;20028;-79
2022/06/20 05:51:01;;;;;;;2.65;1.27;;;28.40;57.90;;;;;;5064771;28;20806;-80
2022/06/20 05:53:50;;;;;;;2.38;1.13;;;28.70;55.00;;;;;;5065002;28;20458;-80
2022/06/20 05:56:19;;;;;;;8.70;1.58;;;29.40;52.50;;;;;;5048738;28;20822;-81
2022/06/20 05:58:46;;;;;;;6.20;1.50;;;30.70;50.10;;;;;;5064817;28;20100;-80
2022/06/20 06:01:16;;;;;;;4.75;1.13;;;32.30;46.80;;;;;;5065134;28;20031;-81
2022/06/20 06:04:16;;;;;;;6.47;1.67;;;33.90;42.80;;;;;;5048154;28;20409;-80
2022/06/20 06:06:53;;;;;;;3.38;1.45;;;35.30;38.70;;;;;;5064741;28;20035;-81
2022/06/20 06:09:27;;;;;;;1.55;1.02;;;36.50;36.60;;;;;;5065353;28;20093;-80
2022/06/20 06:12:01;;;;;;;2.03;1.05;;;37.30;34.00;;;;;;5066159;28;20516;-80
2022/06/20 06:14:50;;;;;;;3.22;1.40;;;38.30;31.60;;;;;;5065934;28;20077;-80
2022/06/20 06:17:47;;;;;;;4.28;1.73;;;38.80;30.00;;;;;;5066170;28;20021;-81
2022/06/20 06:20:25;;;;;;;4.03;1.33;;;39.20;29.60;;;;;;5052392;28;20035;-81
2022/06/20 06:22:54;;;;;;;4.25;1.33;;;39.40;28.70;;;;;;5065697;28;20035;-81
2022/06/20 06:25:28;;;;;;;6.45;2.17;;;39.70;28.60;;;;;;5048123;28;20040;-81
2022/06/20 06:28:04;;;;;;;9.60;1.95;;;39.50;28.30;;;;;;5065237;28;20029;-79
2022/06/20 06:30:35;;;;;;;3.33;1.58;;;39.90;28.30;;;;;;5065896;28;20052;-79
2022/06/20 06:33:09;;;;;;;2.10;1.45;;;40.10;27.60;;;;;;5065323;28;20435;-80
2022/06/20 06:35:47;;;;;;;5.75;1.40;;;40.20;27.50;;;;;;5064576;28;20522;-80
2022/06/20 06:38:37;;;;;;;5.25;1.67;;;40.30;27.10;;;;;;5065022;28;20063;-78
2022/06/20 06:41:10;;;;;;;4.78;1.60;;;40.50;26.90;;;;;;5061503;28;20039;-80
2022/06/20 06:43:43;;;;;;;7.88;2.70;;;40.20;27.40;;;;;;5065764;28;20024;-80
2022/06/20 06:46:22;;;;;;;2.72;1.30;;;40.40;27.00;;;;;;5065872;28;20040;-80
2022/06/20 06:49:12;;;;;;;4.47;1.30;;;40.50;27.00;;;;;;5065828;28;20028;-80
2022/06/20 06:52:12;;;;;;;3.22;1.40;;;40.60;26.70;;;;;;5064451;28;20039;-80
2022/06/20 06:54:41;;;;;;;2.85;1.38;;;40.80;26.50;;;;;;5065503;28;20037;-81
2022/06/20 06:57:21;;;;;;;6.00;1.60;;;40.60;26.60;;;;;;5066095;28;20029;-80
2022/06/20 07:00:02;;;;;;;4.63;1.70;;;40.80;26.40;;;;;;5064534;28;20685;-80
2022/06/20 07:02:32;;;;;;;3.90;1.83;;;40.60;26.70;;;;;;5064030;28;20025;-80
2022/06/20 07:05:26;;;;;;;10.70;1.52;;;40.70;26.60;;;;;;5047678;28;20024;-80
2022/06/20 07:08:26;;;;;;;2.95;1.30;;;40.40;26.40;;;;;;5047426;28;20025;-80
2022/06/20 07:11:09;;;;;;;1.90;1.10;;;40.50;26.50;;;;;;5034843;28;20132;-80
2022/06/20 07:13:55;;;;;;;5.07;1.48;;;40.60;26.50;;;;;;5065832;28;20037;-80
2022/06/20 07:16:28;;;;;;;5.18;1.27;;;40.70;26.30;;;;;;5064845;28;20028;-80
2022/06/20 07:18:56;;;;;;;5.35;1.33;;;40.70;26.40;;;;;;5065226;28;20068;-80
2022/06/20 07:21:23;;;;;;;5.95;1.15;;;40.60;26.70;;;;;;5065975;28;20032;-80
2022/06/20 07:23:57;;;;;;;3.85;1.15;;;40.60;26.60;;;;;;5064376;28;20033;-80
2022/06/20 07:26:25;;;;;;;3.55;0.90;;;40.60;26.70;;;;;;5066152;28;20028;-80
2022/06/20 07:29:04;;;;;;;8.02;1.05;;;40.40;27.30;;;;;;5069436;28;20029;-80
2022/06/20 07:31:36;;;;;;;3.63;1.00;;;40.40;26.90;;;;;;5068894;28;20147;-81
2022/06/20 07:34:20;;;;;;;3.50;1.00;;;40.40;26.70;;;;;;5068622;28;20024;-80
2022/06/20 07:36:57;;;;;;;4.65;1.40;;;40.30;26.50;;;;;;5068826;28;20033;-81
2022/06/20 07:39:28;;;;;;;3.28;1.08;;;40.30;26.70;;;;;;5051018;28;20115;-80
2022/06/20 07:42:08;;;;;;;9.13;1.23;;;40.10;26.90;;;;;;5067424;28;20031;-80
2022/06/20 07:44:45;;;;;;;5.47;1.20;;;40.20;26.40;;;;;;5067751;28;20039;-79
2022/06/20 07:47:16;;;;;;;5.93;1.10;;;40.20;27.10;;;;;;5053735;28;20507;-80
2022/06/20 07:49:53;;;;;;;3.80;1.20;;;40.00;27.10;;;;;;5068455;28;20497;-80
2022/06/20 07:52:39;;;;;;;4.55;1.00;;;40.10;27.00;;;;;;5067497;28;20764;-80
2022/06/20 07:55:19;;;;;;;1.45;0.93;;;40.00;26.70;;;;;;5050955;28;20033;-80
2022/06/20 07:57:57;;;;;;;3.05;1.25;;;40.00;26.70;;;;;;5068517;28;20032;-80
2022/06/20 08:00:27;;;;;;;7.03;1.38;;;40.10;26.40;;;;;;5068675;28;20027;-80
2022/06/20 08:03:02;;;;;;;5.43;1.20;;;40.00;26.60;;;;;;5067212;28;20082;-80
2022/06/20 08:05:34;;;;;;;7.38;1.30;;;39.70;27.30;;;;;;5050458;28;20093;-80
2022/06/20 08:08:03;;;;;;;3.85;1.00;;;39.80;27.10;;;;;;5069049;28;20051;-80
2022/06/20 08:10:48;;;;;;;3.92;1.17;;;39.80;26.60;;;;;;5066678;28;20055;-80
2022/06/20 08:13:30;;;;;;;5.53;1.40;;;39.90;26.70;;;;;;5068060;28;20443;-81
2022/06/20 08:16:02;;;;;;;3.75;1.10;;;39.90;26.70;;;;;;5066966;28;20367;-79
2022/06/20 08:18:29;;;;;;;1.17;0.80;;;39.60;26.70;;;;;;5067675;28;20493;-80
2022/06/20 08:21:17;;;;;;;4.97;1.00;;;39.50;27.20;;;;;;5068437;28;20029;-79
2022/06/20 08:23:48;;;;;;;3.72;1.73;;;39.20;27.40;;;;;;5068444;28;20276;-80
2022/06/20 08:26:21;;;;;;;5.13;1.35;;;39.30;27.30;;;;;;5067132;28;20029;-80
2022/06/20 08:28:52;;;;;;;4.68;1.33;;;39.40;27.20;;;;;;5067782;28;20048;-80
2022/06/20 08:31:18;;;;;;;4.15;1.00;;;39.50;27.30;;;;;;5066383;28;20090;-80
2022/06/20 08:34:02;;;;;;;4.47;1.20;;;39.70;27.20;;;;;;5067692;28;20071;-80
2022/06/20 08:36:37;;;;;;;2.53;1.10;;;39.90;26.50;;;;;;5066358;28;20031;-79
2022/06/20 08:39:12;;;;;;;2.83;0.90;;;40.00;26.40;;;;;;5067677;28;20104;-80
2022/06/20 08:42:06;;;;;;;3.03;1.20;;;40.00;26.40;;;;;;5067788;28;20094;-80
2022/06/20 08:44:35;;;;;;;2.65;1.10;;;40.20;26.60;;;;;;5067531;28;20037;-80
2022/06/20 08:47:19;;;;;;;3.80;0.85;;;40.30;26.20;;;;;;5067366;28;20016;-80
2022/06/20 08:50:00;;;;;;;2.53;0.90;;;40.30;25.50;;;;;;5067620;28;20617;-80
2022/06/20 08:52:45;;;;;;;10.90;1.42;;;40.20;26.00;;;;;;5066514;28;20036;-80
2022/06/20 08:55:42;;;;;;;9.75;1.30;;;40.10;26.20;;;;;;5067865;28;20032;-79
2022/06/20 08:58:20;;;;;;;5.95;1.27;;;40.00;26.10;;;;;;5066264;28;20032;-79
2022/06/20 09:00:53;;;;;;;3.83;1.52;;;40.10;26.20;;;;;;5066911;28;20390;-81
2022/06/20 09:03:31;;;;;;;3.15;1.13;;;40.30;25.90;;;;;;5067579;28;20044;-80
2022/06/20 09:06:11;;;;;;;5.68;0.93;;;40.00;25.70;;;;;;5067077;28;20036;-80
2022/06/20 09:09:13;;;;;;;6.70;1.10;;;40.10;25.80;;;;;;5066940;28;20029;-80
2022/06/20 09:12:04;;;;;;;3.17;1.10;;;40.10;26.30;;;;;;5067009;28;20056;-80
2022/06/20 09:14:48;;;;;;;3.50;1.02;;;40.20;25.70;;;;;;5066596;28;20107;-79
2022/06/20 09:17:43;;;;;;;4.57;1.27;;;40.60;25.50;;;;;;5065162;28;20024;-80
2022/06/20 09:20:11;;;;;;;;;;;40.40;25.90;;;;;;5067357;28;20031;-80
2022/06/20 09:22:46;;;;;;;4.65;1.35;;;40.00;25.30;;;;;;5067219;28;19908;-80
2022/06/20 09:25:53;;;;;;;8.88;1.20;;;40.10;25.50;;;;;;5067160;28;20116;-81
2022/06/20 09:28:32;;;;;;;6.22;1.00;;;39.90;25.80;;;;;;5046258;28;20064;-78
2022/06/20 09:31:19;;;;;;;4.65;0.90;;;39.80;25.90;;;;;;5065353;28;20044;-79
2022/06/20 09:33:59;;;;;;;1.90;1.20;;;40.20;24.80;;;;;;5066740;28;20040;-80
2022/06/20 09:36:38;;;;;;;7.55;1.17;;;40.10;25.30;;;;;;5065581;28;20413;-79
2022/06/20 09:39:18;;;;;;;3.17;1.10;;;40.30;25.60;;;;;;5066334;28;20312;-80
2022/06/20 09:42:00;;;;;;;4.20;1.00;;;40.30;25.60;;;;;;5048870;28;20493;-80
2022/06/20 09:44:55;;;;;;;1.30;0.90;;;40.30;25.60;;;;;;5048737;28;20028;-79
2022/06/20 09:47:43;;;;;;;2.15;1.13;;;40.50;25.30;;;;;;5066501;28;20111;-81
2022/06/20 09:50:39;;;;;;;2.53;1.02;;;40.40;24.90;;;;;;5064992;28;20047;-80
2022/06/20 09:53:32;;;;;;;2.40;1.27;;;40.40;24.70;;;;;;5046829;28;20508;-79
2022/06/20 09:56:28;;;;;;;4.55;1.15;;;40.40;24.90;;;;;;5066493;28;20116;-80
2022/06/20 09:59:04;;;;;;;7.45;1.20;;;40.40;25.00;;;;;;5065244;28;20404;-80
2022/06/20 10:01:41;;;;;;;4.38;1.10;;;40.40;24.70;;;;;;5048126;28;20054;-80
2022/06/20 10:04:22;;;;;;;4.32;1.20;;;39.70;25.20;;;;;;5048671;28;20032;-80
2022/06/20 10:06:59;;;;;;;14.60;1.05;;;39.10;25.00;;;;;;5065112;28;20020;-80
2022/06/20 10:09:31;;;;;;;3.67;1.30;;;38.30;25.50;;;;;;5065097;28;20501;-78
2022/06/20 10:12:19;;;;;;;5.53;1.00;;;37.70;26.10;;;;;;5064975;28;20400;-79
2022/06/20 10:15:03;;;;;;;8.90;1.13;;;37.00;26.10;;;;;;5047458;28;20082;-79
2022/06/20 10:17:50;;;;;;;6.10;1.02;;;36.30;26.10;;;;;;5065123;28;20667;-79
2022/06/20 10:20:46;;;;;;;8.20;0.95;;;35.80;27.20;;;;;;5064731;28;20032;-79
2022/06/20 10:23:39;;;;;;;1.50;0.88;;;35.40;28.00;;;;;;5047911;28;20036;-80
2022/06/20 10:26:05;;;;;;;1.25;0.80;;;35.40;28.40;;;;;;5064441;28;20029;-79
2022/06/20 10:28:45;;;;;;;6.95;1.30;;;35.50;28.10;;;;;;5064661;28;20028;-79
2022/06/20 10:31:30;;;;;;;3.95;1.10;;;35.50;28.80;;;;;;5065186;28;20040;-80
2022/06/20 10:34:12;;;;;;;5.68;1.20;;;35.60;27.80;;;;;;5065427;28;20156;-80
2022/06/20 10:36:49;;;;;;;6.20;1.05;;;35.40;27.50;;;;;;5065452;28;20055;-79
2022/06/20 10:39:42;;;;;;;1.80;0.85;;;35.30;27.60;;;;;;5065996;28;20468;-80
2022/06/20 10:42:59;;;;;;;8.48;1.20;;;35.20;27.30;;;;;;5064040;28;20032;-79
2022/06/20 10:45:40;;;;;;;7.50;1.30;;;35.10;27.90;;;;;;4964656;28;20039;-79
2022/06/20 10:48:15;;;;;;;2.30;1.13;;;34.90;27.40;;;;;;5039282;28;20051;-79
2022/06/20 10:50:58;;;;;;;5.88;1.70;;;34.50;28.00;;;;;;5064608;28;20032;-79
2022/06/20 10:53:48;;;;;;;3.13;1.00;;;34.40;28.00;;;;;;5065897;28;20540;-79
2022/06/20 10:56:49;;;;;;;4.22;1.20;;;34.40;28.40;;;;;;5064383;28;20381;-79
2022/06/20 10:59:20;;;;;;;2.47;0.80;;;34.50;27.80;;;;;;5065279;28;20048;-79
2022/06/20 11:01:55;;;;;;;2.13;0.90;;;34.40;27.80;;;;;;5065531;28;20435;-80
2022/06/20 11:04:55;;;;;;;1.85;0.88;;;34.40;27.50;;;;;;5069999;28;20040;-80
2022/06/20 11:07:38;;;;;;;4.50;1.00;;;34.30;28.00;;;;;;5068153;28;20060;-80
2022/06/20 11:10:28;;;;;;;4.25;1.13;;;34.40;27.10;;;;;;5069430;28;20028;-79
2022/06/20 11:13:21;;;;;;;3.33;1.38;;;34.40;26.60;;;;;;5067923;28;20085;-79
2022/06/20 11:15:53;;;;;;;8.07;0.80;;;34.50;27.30;;;;;;5069209;28;20508;-79
2022/06/20 11:18:37;;;;;;;3.00;0.80;;;34.60;27.60;;;;;;5068252;28;20517;-79
2022/06/20 11:21:32;;;;;;;5.90;1.40;;;34.60;27.60;;;;;;5067924;28;20036;-79
2022/06/20 11:24:29;;;;;;;3.83;0.80;;;34.60;27.70;;;;;;5068972;28;20484;-80
2022/06/20 11:27:16;;;;;;;2.80;1.00;;;34.70;27.10;;;;;;5068183;28;20021;-78
2022/06/20 11:30:13;;;;;;;6.93;0.80;;;34.80;25.60;;;;;;5067662;28;20447;-80
2022/06/20 11:32:57;;;;;;;;;;;34.80;25.90;;;;;;5069110;28;20047;-79
2022/06/20 11:35:48;;;;;;;5.40;1.10;;;34.80;25.60;;;;;;5067311;28;19912;-79
2022/06/20 11:38:26;;;;;;;4.53;0.70;;;34.70;26.00;;;;;;5068007;28;20068;-79
2022/06/20 11:40:57;;;;;;;5.05;1.10;;;34.60;26.10;;;;;;5067648;28;20033;-79
2022/06/20 11:43:32;;;;;;;3.00;1.25;;;34.70;26.90;;;;;;5067705;28;20059;-79
2022/06/20 11:46:19;;;;;;;2.40;0.95;;;34.70;26.20;;;;;;5067850;28;20032;-79
2022/06/20 11:49:26;;;;;;;4.10;0.80;;;34.80;26.60;;;;;;5067535;28;20121;-79
2022/06/20 11:52:18;;;;;;;1.83;1.02;;;34.70;27.30;;;;;;5002493;28;20106;-79
2022/06/20 11:54:52;;;;;;;3.83;1.20;;;34.80;27.30;;;;;;5068283;28;20037;-79
2022/06/20 11:57:39;;;;;;;7.13;0.80;;;34.90;27.50;;;;;;5068571;28;20024;-79
2022/06/20 12:00:14;;;;;;;8.27;1.05;;;34.90;27.20;;;;;;5068535;28;20024;-78
2022/06/20 12:03:12;;;;;;;3.05;1.08;;;35.00;26.80;;;;;;5068549;28;20047;-79
2022/06/20 12:05:57;;;;;;;6.72;1.13;;;34.90;27.20;;;;;;5067060;28;20652;-79
2022/06/20 12:08:27;;;;;;;1.67;0.70;;;35.00;27.10;;;;;;5068574;28;20111;-80
2022/06/20 12:11:35;;;;;;;6.40;1.15;;;35.00;27.70;;;;;;5068275;28;20082;-80
2022/06/20 12:14:36;;;;;;;2.40;1.00;;;35.00;27.40;;;;;;5067851;28;20036;-78
2022/06/20 12:17:20;;;;;;;3.00;0.80;;;34.90;27.70;;;;;;5049774;28;20451;-79
2022/06/20 12:25:49;;;;;;;4.72;0.77;;;34.90;26.40;;;;;;5068610;28;20530;-80
2022/06/20 12:28:23;;;;;;;4.00;0.80;;;34.90;26.30;;;;;;5066633;28;20029;-80
2022/06/20 12:31:08;;;;;;;2.05;0.70;;;34.90;25.90;;;;;;5067968;28;20105;-80
2022/06/20 12:33:41;;;;;;;5.88;0.70;;;34.90;26.20;;;;;;5066997;28;20024;-79
2022/06/20 12:36:31;;;;;;;1.40;0.65;;;34.90;26.40;;;;;;5066468;28;20835;-80
2022/06/20 12:39:15;;;;;;;3.28;0.88;;;34.90;26.80;;;;;;5068452;28;20028;-79
2022/06/20 12:41:46;;;;;;;3.35;0.63;;;34.90;26.70;;;;;;5068785;28;20028;-78
2022/06/20 12:44:30;;;;;;;5.43;0.80;;;35.00;25.90;;;;;;5068079;28;20067;-79
2022/06/20 12:47:17;;;;;;;3.53;0.90;;;35.00;25.40;;;;;;5067880;28;20032;-78
2022/06/20 12:49:54;;;;;;;2.45;0.70;;;34.90;26.40;;;;;;5067987;28;20029;-78
2022/06/20 12:52:46;;;;;;;11.40;0.82;;;34.90;26.40;;;;;;5066523;28;20488;-80
2022/06/20 12:55:34;;;;;;;1.98;0.80;;;34.80;26.40;;;;;;5067873;28;20110;-79
2022/06/20 12:58:38;;;;;;;2.10;0.60;;;34.80;26.60;;;;;;5012360;28;20041;-79
2022/06/20 13:01:32;;;;;;;2.67;0.80;;;34.70;26.60;;;;;;5066239;28;20032;-79
2022/06/20 13:04:14;;;;;;;1.85;0.70;;;34.70;25.70;;;;;;5067203;28;20029;-80
2022/06/20 13:06:55;;;;;;;3.97;0.70;;;34.70;26.00;;;;;;5067364;28;20033;-78
2022/06/20 13:09:38;;;;;;;1.92;0.80;;;34.80;26.50;;;;;;5067737;28;20035;-79
2022/06/20 13:12:13;;;;;;;3.20;0.80;;;34.90;26.40;;;;;;5067486;28;20032;-79
2022/06/20 13:15:13;;;;;;;4.88;0.85;;;34.90;26.60;;;;;;5066925;28;20044;-80
2022/06/20 13:18:07;;;;;;;6.63;0.93;;;35.00;26.50;;;;;;5065807;28;20032;-79
2022/06/20 13:21:03;;;;;;;2.78;1.17;;;35.00;26.30;;;;;;5067043;28;20550;-79
2022/06/20 13:23:41;;;;;;;4.32;0.93;;;35.00;26.50;;;;;;5049282;28;20110;-79
2022/06/20 13:26:10;;;;;;;5.18;0.98;;;34.90;26.40;;;;;;5048841;28;20489;-80
2022/06/20 13:28:50;;;;;;;1.10;0.70;;;34.90;26.70;;;;;;5066543;28;20056;-80
2022/06/20 13:31:18;;;;;;;3.00;0.95;;;34.90;26.70;;;;;;5065114;28;20131;-79
2022/06/20 13:33:53;;;;;;;7.43;1.17;;;34.90;26.70;;;;;;5067015;28;20047;-80
2022/06/20 13:36:44;;;;;;;2.83;0.93;;;35.00;26.60;;;;;;5066725;28;20105;-80
2022/06/20 13:39:27;;;;;;;6.28;1.10;;;34.90;26.70;;;;;;5067139;28;20658;-79
2022/06/20 13:42:15;;;;;;;2.42;1.27;;;34.90;26.60;;;;;;5082525;28;20037;-80
2022/06/20 13:44:59;;;;;;;1.48;0.85;;;34.80;26.60;;;;;;5066259;28;20024;-79
2022/06/20 13:47:38;;;;;;;2.55;0.98;;;34.70;26.60;;;;;;5082120;28;20032;-79
2022/06/20 13:50:15;;;;;;;3.60;1.02;;;34.70;26.60;;;;;;5066797;28;20256;-80
2022/06/20 13:53:07;;;;;;;7.20;1.15;;;34.70;26.20;;;;;;5082251;28;20029;-79
2022/06/20 13:55:42;;;;;;;2.88;1.15;;;34.60;26.20;;;;;;5066812;28;20065;-79
2022/06/20 13:58:38;;;;;;;1.48;0.75;;;34.70;26.80;;;;;;5081716;28;20033;-79
2022/06/20 14:01:08;;;;;;;;;;;34.80;26.60;;;;;;5080877;28;20408;-79